Citadel — PBOK — position and weather

sailwx.info

Track history (hours):
 
Tides and Currents Weather Stations Pressure Air Temp Water Temp Dewpoint Dewpoint Depression Visibility Wind Speed Wind Dir Waves Ship Positions

Citadel

Last reported at 2017-Feb-27 07:06 UTC. Time now 2017-Feb-27 08:52 UTC.
Position N 51°03' E 002°21'.

Length 111 m; draft 4 m.

Type: Cargo ship. MMSI: 245977000.

Date/timePositionNaut miles runAvg speedWind from/ knotsBaromVisibWave heightAir tempDewpointWater temp
2017-Feb-27 07:06N 51°03' E 002°21'0 0.0
2017-Feb-27 06:33N 51°03' E 002°21'0 0.0
2017-Feb-27 05:05N 51°03' E 002°21'0 0.0
2017-Feb-27 03:04N 51°03' E 002°21'0 0.0
2017-Feb-26 19:16N 51°03' E 002°21'0 0.0
2017-Feb-26 03:33N 51°03' E 002°21'0 0.0
2017-Feb-25 16:11N 51°03' E 002°21'0 0.7
2017-Feb-25 15:33N 51°03' E 002°22'5 4.7
2017-Feb-25 14:32N 51°04' E 002°14'1313.5
2017-Feb-25 13:33N 51°02' E 001°54'9 8.9
2017-Feb-25 12:33N 51°09' E 001°45'7 7.4
2017-Feb-25 11:33N 51°16' E 001°49'9 8.8
2017-Feb-25 10:33N 51°23' E 001°57'1110.7
2017-Feb-25 09:33N 51°32' E 002°08'8311.8
2017-Feb-25 02:32N 52°24' E 003°53'1010.6
2017-Feb-25 01:33N 52°26' E 004°09'1111.0
2017-Feb-25 00:33N 52°29' E 004°27'6 5.8
2017-Feb-24 23:34N 52°28' E 004°36'5 5.3
2017-Feb-24 22:33N 52°26' E 004°44'3 2.9
2017-Feb-24 21:33N 52°25' E 004°49'0 0.0
2017-Feb-24 20:34N 52°25' E 004°49'0 0.0
2017-Feb-24 19:34N 52°25' E 004°49'0 0.0
2017-Feb-24 18:33N 52°25' E 004°49'0 0.0
2017-Feb-24 17:34N 52°25' E 004°49'0 0.0
2017-Feb-24 16:33N 52°25' E 004°49'0 0.0
2017-Feb-24 15:34N 52°25' E 004°49'0 0.0
2017-Feb-24 14:34N 52°25' E 004°49'0 0.0
2017-Feb-24 13:33N 52°25' E 004°49'0 0.0
2017-Feb-24 12:34N 52°25' E 004°49'0 0.0
2017-Feb-24 11:28N 52°25' E 004°49'0 0.0
2017-Feb-24 10:33N 52°25' E 004°49'0 0.0
2017-Feb-24 09:33N 52°25' E 004°49'0 0.0
2017-Feb-24 08:34N 52°25' E 004°49'0 0.0
2017-Feb-24 07:33N 52°25' E 004°49'0 0.0
2017-Feb-24 06:33N 52°25' E 004°49'0 0.0
2017-Feb-24 05:33N 52°25' E 004°49'0 0.1
2017-Feb-24 04:33N 52°25' E 004°49'8 7.5
2017-Feb-24 03:34N 52°28' E 004°37'3 2.6
2017-Feb-24 02:34N 52°28' E 004°33'7 6.7
2017-Feb-24 01:33N 52°28' E 004°22'5 5.1
2017-Feb-24 00:33N 52°27' E 004°14'6 5.5
2017-Feb-23 23:33N 52°26' E 004°05'4 4.1
2017-Feb-23 22:33N 52°26' E 003°58'2 1.8
2017-Feb-23 21:33N 52°25' E 004°01'1 0.7
2017-Feb-23 20:33N 52°24' E 004°01'1 0.6
2017-Feb-23 19:33N 52°24' E 004°01'1 0.7
2017-Feb-23 18:33N 52°24' E 004°01'1 1.1
2017-Feb-23 17:31N 52°25' E 004°00'2 2.4
2017-Feb-23 16:33N 52°25' E 003°56'4110.0
2017-Feb-23 12:29N 52°02' E 003°02'1212.3
2017-Feb-23 11:32N 51°54' E 002°49'2412.2
2017-Feb-23 09:33N 51°35' E 002°24'1211.9
2017-Feb-23 08:33N 51°26' E 002°12'1111.0
2017-Feb-23 07:33N 51°16' E 002°04'1010.5
2017-Feb-23 06:33N 51°09' E 001°52'10 9.8
2017-Feb-23 05:33N 51°02' E 001°41'9 9.2
2017-Feb-23 04:33N 50°55' E 001°31'66 9.4
2017-Feb-22 21:32N 50°21' E 000°02'3611.4
2017-Feb-22 18:23N 50°10' W 000°52'1012.5
2017-Feb-22 17:33N 50°07' W 001°07'1312.8
2017-Feb-22 16:34N 50°04' W 001°27'1312.7
2017-Feb-22 15:34N 50°00' W 001°45'1212.0
2017-Feb-22 14:32N 49°57' W 002°04'12510.4
2017-Feb-22 02:33N 48°51' W 004°48'1111.5
2017-Feb-22 01:33N 48°44' W 005°02'1211.6
2017-Feb-22 00:33N 48°37' W 005°15'1110.6
2017-Feb-21 23:33N 48°28' W 005°23'1211.1
2017-Feb-21 22:31N 48°17' W 005°17'1111.2
2017-Feb-21 21:33N 48°07' W 005°12'1111.2
2017-Feb-21 20:33N 47°57' W 005°04'1111.0
2017-Feb-21 19:33N 47°47' W 004°57'1110.8
2017-Feb-21 18:33N 47°38' W 004°49'1210.8
2017-Feb-21 17:28N 47°27' W 004°40'1110.9
2017-Feb-21 16:30N 47°18' W 004°33'1010.7
2017-Feb-21 15:33N 47°09' W 004°25'1010.6
2017-Feb-21 14:33N 47°00' W 004°18'1110.6
2017-Feb-21 13:33N 46°51' W 004°10'1110.7
2017-Feb-21 12:33N 46°41' W 004°02'1110.9
2017-Feb-21 11:33N 46°32' W 003°55'1110.9
2017-Feb-21 10:33N 46°22' W 003°47'1210.7
2017-Feb-21 09:25N 46°12' W 003°38'18211.1
2017-Feb-20 17:04N 43°33' W 001°34'3 1.2
2017-Feb-20 14:29N 43°32' W 001°30'0 0.0
2017-Feb-20 13:22N 43°32' W 001°30'0 0.0
2017-Feb-20 12:33N 43°32' W 001°30'0 0.0
2017-Feb-20 11:33N 43°32' W 001°30'0 0.0
2017-Feb-20 10:33N 43°32' W 001°30'0 0.0
2017-Feb-20 09:33N 43°32' W 001°30'0 0.0
2017-Feb-20 08:21N 43°32' W 001°30'0 0.0
2017-Feb-20 07:18N 43°32' W 001°30'0 0.0
2017-Feb-20 06:33N 43°32' W 001°30'0 0.0
2017-Feb-20 05:31N 43°32' W 001°30'0 0.0
2017-Feb-20 04:32N 43°32' W 001°30'0 0.0
2017-Feb-20 03:33N 43°32' W 001°30'0 0.0
2017-Feb-20 02:33N 43°32' W 001°30'0 0.0
2017-Feb-20 01:33N 43°32' W 001°30'0 0.0
2017-Feb-20 00:29N 43°32' W 001°30'0 0.0
2017-Feb-19 23:29N 43°32' W 001°30'0 0.0
2017-Feb-19 22:17N 43°32' W 001°30'0 0.0
2017-Feb-19 21:21N 43°32' W 001°30'0 0.0
2017-Feb-19 20:18N 43°32' W 001°30'0 0.0
2017-Feb-19 19:33N 43°32' W 001°30'0 0.0
2017-Feb-19 18:33N 43°32' W 001°30'0 0.0
2017-Feb-19 17:33N 43°32' W 001°30'0 0.0
2017-Feb-19 16:33N 43°32' W 001°30'0 0.0
2017-Feb-19 15:33N 43°32' W 001°30'0 0.0
2017-Feb-19 14:28N 43°32' W 001°30'0 0.0
2017-Feb-19 13:32N 43°32' W 001°30'0 0.0
2017-Feb-19 12:31N 43°32' W 001°30'0 0.0
2017-Feb-19 11:33N 43°32' W 001°30'0 0.0
2017-Feb-19 10:32N 43°32' W 001°30'0 0.0
2017-Feb-19 09:32N 43°32' W 001°30'0 0.0
2017-Feb-19 08:22N 43°32' W 001°30'0 0.0
2017-Feb-19 07:21N 43°32' W 001°30'0 0.0
2017-Feb-19 06:32N 43°32' W 001°30'0 0.0
2017-Feb-19 05:33N 43°32' W 001°30'0 0.0
2017-Feb-19 04:31N 43°32' W 001°30'0 0.0
2017-Feb-19 03:33N 43°32' W 001°30'0 0.0
2017-Feb-19 02:33N 43°32' W 001°30'0 0.0
2017-Feb-19 01:33N 43°32' W 001°30'0 0.0
2017-Feb-19 00:33N 43°32' W 001°30'0 0.0
2017-Feb-18 23:33N 43°32' W 001°30'0 0.0
2017-Feb-18 22:33N 43°32' W 001°30'0 0.0
2017-Feb-18 21:32N 43°32' W 001°30'0 0.0
2017-Feb-18 20:33N 43°32' W 001°30'0 0.0
2017-Feb-18 19:33N 43°32' W 001°30'0 0.0
2017-Feb-18 18:33N 43°32' W 001°30'0 0.0
2017-Feb-18 17:33N 43°32' W 001°30'0 0.0
2017-Feb-18 16:26N 43°32' W 001°30'0 0.0
2017-Feb-18 15:33N 43°32' W 001°30'0 0.0
2017-Feb-18 14:33N 43°32' W 001°30'0 0.0
2017-Feb-18 13:33N 43°32' W 001°30'0 0.0
2017-Feb-18 12:33N 43°32' W 001°30'0 0.0
2017-Feb-18 11:33N 43°32' W 001°30'0 0.0
2017-Feb-18 10:33N 43°32' W 001°30'0 0.0
2017-Feb-18 09:33N 43°32' W 001°30'0 0.0
2017-Feb-18 08:33N 43°32' W 001°30'1 1.5
2017-Feb-18 07:33N 43°32' W 001°32'8 7.2
2017-Feb-18 06:28N 43°40' W 001°33'8 9.2
2017-Feb-18 05:33N 43°48' W 001°34'1010.4
2017-Feb-18 04:33N 43°58' W 001°34'1210.3
2017-Feb-18 03:24N 44°10' W 001°35'910.3
2017-Feb-18 02:33N 44°19' W 001°35'1010.1
2017-Feb-18 01:33N 44°29' W 001°35'1010.1
2017-Feb-18 00:33N 44°39' W 001°35'1110.2
2017-Feb-17 23:25N 44°51' W 001°35'910.4
2017-Feb-17 22:33N 44°60' W 001°34'5811.5
2017-Feb-17 17:32N 45°58' W 001°32'1010.2
2017-Feb-17 16:33N 46°06' W 001°23'7 7.4
2017-Feb-17 15:33N 46°09' W 001°14'0 0.0
2017-Feb-17 14:32N 46°09' W 001°14'0 0.0
2017-Feb-17 13:32N 46°09' W 001°14'0 0.0
2017-Feb-17 12:31N 46°09' W 001°14'0 0.0
2017-Feb-17 11:31N 46°09' W 001°14'0 0.0
2017-Feb-17 10:34N 46°09' W 001°14'  
Track history (hours):
 
Tides and Currents Weather Stations Pressure Air Temp Water Temp Dewpoint Dewpoint Depression Visibility Wind Speed Wind Dir Waves Ship Positions

Citadel

Last reported at 2017-Feb-27 07:06 UTC. Time now 2017-Feb-27 08:52 UTC.
Position N 51°03' E 002°21'.

Length 111 m; draft 4 m.

Type: Cargo ship. MMSI: 245977000.

Date/timePositionNaut miles runAvg speedWind from/ knotsBaromVisibWave heightAir tempDewpointWater temp
2017-Feb-27 07:06N 51°03' E 002°21'0 0.0
2017-Feb-27 06:33N 51°03' E 002°21'0 0.0
2017-Feb-27 05:05N 51°03' E 002°21'0 0.0
2017-Feb-27 03:04N 51°03' E 002°21'0 0.0
2017-Feb-26 19:16N 51°03' E 002°21'0 0.0
2017-Feb-26 03:33N 51°03' E 002°21'0 0.0
2017-Feb-25 16:11N 51°03' E 002°21'0 0.7
2017-Feb-25 15:33N 51°03' E 002°22'5 4.7
2017-Feb-25 14:32N 51°04' E 002°14'1313.5
2017-Feb-25 13:33N 51°02' E 001°54'9 8.9
2017-Feb-25 12:33N 51°09' E 001°45'7 7.4
2017-Feb-25 11:33N 51°16' E 001°49'9 8.8
2017-Feb-25 10:33N 51°23' E 001°57'1110.7
2017-Feb-25 09:33N 51°32' E 002°08'8311.8
2017-Feb-25 02:32N 52°24' E 003°53'1010.6
2017-Feb-25 01:33N 52°26' E 004°09'1111.0
2017-Feb-25 00:33N 52°29' E 004°27'6 5.8
2017-Feb-24 23:34N 52°28' E 004°36'5 5.3
2017-Feb-24 22:33N 52°26' E 004°44'3 2.9
2017-Feb-24 21:33N 52°25' E 004°49'0 0.0
2017-Feb-24 20:34N 52°25' E 004°49'0 0.0
2017-Feb-24 19:34N 52°25' E 004°49'0 0.0
2017-Feb-24 18:33N 52°25' E 004°49'0 0.0
2017-Feb-24 17:34N 52°25' E 004°49'0 0.0
2017-Feb-24 16:33N 52°25' E 004°49'0 0.0
2017-Feb-24 15:34N 52°25' E 004°49'0 0.0
2017-Feb-24 14:34N 52°25' E 004°49'0 0.0
2017-Feb-24 13:33N 52°25' E 004°49'0 0.0
2017-Feb-24 12:34N 52°25' E 004°49'0 0.0
2017-Feb-24 11:28N 52°25' E 004°49'0 0.0
2017-Feb-24 10:33N 52°25' E 004°49'0 0.0
2017-Feb-24 09:33N 52°25' E 004°49'0 0.0
2017-Feb-24 08:34N 52°25' E 004°49'0 0.0
2017-Feb-24 07:33N 52°25' E 004°49'0 0.0
2017-Feb-24 06:33N 52°25' E 004°49'0 0.0
2017-Feb-24 05:33N 52°25' E 004°49'0 0.1
2017-Feb-24 04:33N 52°25' E 004°49'8 7.5
2017-Feb-24 03:34N 52°28' E 004°37'3 2.6
2017-Feb-24 02:34N 52°28' E 004°33'7 6.7
2017-Feb-24 01:33N 52°28' E 004°22'5 5.1
2017-Feb-24 00:33N 52°27' E 004°14'6 5.5
2017-Feb-23 23:33N 52°26' E 004°05'4 4.1
2017-Feb-23 22:33N 52°26' E 003°58'2 1.8
2017-Feb-23 21:33N 52°25' E 004°01'1 0.7
2017-Feb-23 20:33N 52°24' E 004°01'1 0.6
2017-Feb-23 19:33N 52°24' E 004°01'1 0.7
2017-Feb-23 18:33N 52°24' E 004°01'1 1.1
2017-Feb-23 17:31N 52°25' E 004°00'2 2.4
2017-Feb-23 16:33N 52°25' E 003°56'4110.0
2017-Feb-23 12:29N 52°02' E 003°02'1212.3
2017-Feb-23 11:32N 51°54' E 002°49'2412.2
2017-Feb-23 09:33N 51°35' E 002°24'1211.9
2017-Feb-23 08:33N 51°26' E 002°12'1111.0
2017-Feb-23 07:33N 51°16' E 002°04'1010.5
2017-Feb-23 06:33N 51°09' E 001°52'10 9.8
2017-Feb-23 05:33N 51°02' E 001°41'9 9.2
2017-Feb-23 04:33N 50°55' E 001°31'66 9.4
2017-Feb-22 21:32N 50°21' E 000°02'3611.4
2017-Feb-22 18:23N 50°10' W 000°52'1012.5
2017-Feb-22 17:33N 50°07' W 001°07'1312.8
2017-Feb-22 16:34N 50°04' W 001°27'1312.7
2017-Feb-22 15:34N 50°00' W 001°45'1212.0
2017-Feb-22 14:32N 49°57' W 002°04'12510.4
2017-Feb-22 02:33N 48°51' W 004°48'1111.5
2017-Feb-22 01:33N 48°44' W 005°02'1211.6
2017-Feb-22 00:33N 48°37' W 005°15'1110.6
2017-Feb-21 23:33N 48°28' W 005°23'1211.1
2017-Feb-21 22:31N 48°17' W 005°17'1111.2
2017-Feb-21 21:33N 48°07' W 005°12'1111.2
2017-Feb-21 20:33N 47°57' W 005°04'1111.0
2017-Feb-21 19:33N 47°47' W 004°57'1110.8
2017-Feb-21 18:33N 47°38' W 004°49'1210.8
2017-Feb-21 17:28N 47°27' W 004°40'1110.9
2017-Feb-21 16:30N 47°18' W 004°33'1010.7
2017-Feb-21 15:33N 47°09' W 004°25'1010.6
2017-Feb-21 14:33N 47°00' W 004°18'1110.6
2017-Feb-21 13:33N 46°51' W 004°10'1110.7
2017-Feb-21 12:33N 46°41' W 004°02'1110.9
2017-Feb-21 11:33N 46°32' W 003°55'1110.9
2017-Feb-21 10:33N 46°22' W 003°47'1210.7
2017-Feb-21 09:25N 46°12' W 003°38'18211.1
2017-Feb-20 17:04N 43°33' W 001°34'3 1.2
2017-Feb-20 14:29N 43°32' W 001°30'0 0.0
2017-Feb-20 13:22N 43°32' W 001°30'0 0.0
2017-Feb-20 12:33N 43°32' W 001°30'0 0.0
2017-Feb-20 11:33N 43°32' W 001°30'0 0.0
2017-Feb-20 10:33N 43°32' W 001°30'0 0.0
2017-Feb-20 09:33N 43°32' W 001°30'0 0.0
2017-Feb-20 08:21N 43°32' W 001°30'0 0.0
2017-Feb-20 07:18N 43°32' W 001°30'0 0.0
2017-Feb-20 06:33N 43°32' W 001°30'0 0.0
2017-Feb-20 05:31N 43°32' W 001°30'0 0.0
2017-Feb-20 04:32N 43°32' W 001°30'0 0.0
2017-Feb-20 03:33N 43°32' W 001°30'0 0.0
2017-Feb-20 02:33N 43°32' W 001°30'0 0.0
2017-Feb-20 01:33N 43°32' W 001°30'0 0.0
2017-Feb-20 00:29N 43°32' W 001°30'0 0.0
2017-Feb-19 23:29N 43°32' W 001°30'0 0.0
2017-Feb-19 22:17N 43°32' W 001°30'0 0.0
2017-Feb-19 21:21N 43°32' W 001°30'0 0.0
2017-Feb-19 20:18N 43°32' W 001°30'0 0.0
2017-Feb-19 19:33N 43°32' W 001°30'0 0.0
2017-Feb-19 18:33N 43°32' W 001°30'0 0.0
2017-Feb-19 17:33N 43°32' W 001°30'0 0.0
2017-Feb-19 16:33N 43°32' W 001°30'0 0.0
2017-Feb-19 15:33N 43°32' W 001°30'0 0.0
2017-Feb-19 14:28N 43°32' W 001°30'0 0.0
2017-Feb-19 13:32N 43°32' W 001°30'0 0.0
2017-Feb-19 12:31N 43°32' W 001°30'0 0.0
2017-Feb-19 11:33N 43°32' W 001°30'0 0.0
2017-Feb-19 10:32N 43°32' W 001°30'0 0.0
2017-Feb-19 09:32N 43°32' W 001°30'0 0.0
2017-Feb-19 08:22N 43°32' W 001°30'0 0.0
2017-Feb-19 07:21N 43°32' W 001°30'0 0.0
2017-Feb-19 06:32N 43°32' W 001°30'0 0.0
2017-Feb-19 05:33N 43°32' W 001°30'0 0.0
2017-Feb-19 04:31N 43°32' W 001°30'0 0.0
2017-Feb-19 03:33N 43°32' W 001°30'0 0.0
2017-Feb-19 02:33N 43°32' W 001°30'0 0.0
2017-Feb-19 01:33N 43°32' W 001°30'0 0.0
2017-Feb-19 00:33N 43°32' W 001°30'0 0.0
2017-Feb-18 23:33N 43°32' W 001°30'0 0.0
2017-Feb-18 22:33N 43°32' W 001°30'0 0.0
2017-Feb-18 21:32N 43°32' W 001°30'0 0.0
2017-Feb-18 20:33N 43°32' W 001°30'0 0.0
2017-Feb-18 19:33N 43°32' W 001°30'0 0.0
2017-Feb-18 18:33N 43°32' W 001°30'0 0.0
2017-Feb-18 17:33N 43°32' W 001°30'0 0.0
2017-Feb-18 16:26N 43°32' W 001°30'0 0.0
2017-Feb-18 15:33N 43°32' W 001°30'0 0.0
2017-Feb-18 14:33N 43°32' W 001°30'0 0.0
2017-Feb-18 13:33N 43°32' W 001°30'0 0.0
2017-Feb-18 12:33N 43°32' W 001°30'0 0.0
2017-Feb-18 11:33N 43°32' W 001°30'0 0.0
2017-Feb-18 10:33N 43°32' W 001°30'0 0.0
2017-Feb-18 09:33N 43°32' W 001°30'0 0.0
2017-Feb-18 08:33N 43°32' W 001°30'1 1.5
2017-Feb-18 07:33N 43°32' W 001°32'8 7.2
2017-Feb-18 06:28N 43°40' W 001°33'8 9.2
2017-Feb-18 05:33N 43°48' W 001°34'1010.4
2017-Feb-18 04:33N 43°58' W 001°34'1210.3
2017-Feb-18 03:24N 44°10' W 001°35'910.3
2017-Feb-18 02:33N 44°19' W 001°35'1010.1
2017-Feb-18 01:33N 44°29' W 001°35'1010.1
2017-Feb-18 00:33N 44°39' W 001°35'1110.2
2017-Feb-17 23:25N 44°51' W 001°35'910.4
2017-Feb-17 22:33N 44°60' W 001°34'5811.5
2017-Feb-17 17:32N 45°58' W 001°32'1010.2
2017-Feb-17 16:33N 46°06' W 001°23'7 7.4
2017-Feb-17 15:33N 46°09' W 001°14'0 0.0
2017-Feb-17 14:32N 46°09' W 001°14'0 0.0
2017-Feb-17 13:32N 46°09' W 001°14'0 0.0
2017-Feb-17 12:31N 46°09' W 001°14'0 0.0
2017-Feb-17 11:31N 46°09' W 001°14'0 0.0
2017-Feb-17 10:34N 46°09' W 001°14'  

Dump ship's entire track history